Time;durP1;ratioP1;P1;durP2;ratioP2;P2;SDS_P1;SDS_P2;PMS_P1;PMS_P2;Temp;Humidity;BMP_temperature;BMP_pressure;BME280_temperature;BME280_humidity;BME280_pressure;Samples;Min_cycle;Max_cycle;Signal;HPM_P1;HPM_P2
2023/05/27 00:00:18;;;;;;;31.83;7.33;;;;;;;;;;5071237;28;20020;-90
2023/05/27 00:02:43;;;;;;;28.37;6.70;;;;;;;;;;5074893;28;20512;-91
2023/05/27 00:05:08;;;;;;;26.50;6.70;;;;;;;;;;5071195;28;20045;-90
2023/05/27 00:07:33;;;;;;;27.27;7.80;;;;;;;;;;5074171;28;20027;-90
2023/05/27 00:09:59;;;;;;;27.13;6.93;;;;;;;;;;5074353;28;20025;-90
2023/05/27 00:12:24;;;;;;;32.93;8.27;;;;;;;;;;5071541;28;20482;-90
2023/05/27 00:14:49;;;;;;;32.40;7.70;;;;;;;;;;5071529;28;20516;-89
2023/05/27 00:17:15;;;;;;;34.50;9.10;;;;;;;;;;5070651;28;20046;-90
2023/05/27 00:19:40;;;;;;;36.23;8.70;;;;;;;;;;5073295;28;20016;-89
2023/05/27 00:22:06;;;;;;;28.63;7.87;;;;;;;;;;5074088;28;20055;-90
2023/05/27 00:24:32;;;;;;;26.67;7.10;;;;;;;;;;5071448;28;20029;-91
2023/05/27 00:26:57;;;;;;;27.33;7.73;;;;;;;;;;5071496;28;20021;-90
2023/05/27 00:29:24;;;;;;;27.13;7.93;;;;;;;;;;5073565;28;20363;-91
2023/05/27 00:31:49;;;;;;;39.73;8.60;;;;;;;;;;5070337;28;20027;-90
2023/05/27 00:34:15;;;;;;;32.00;7.57;;;;;;;;;;5074823;28;20103;-90
2023/05/27 00:36:40;;;;;;;23.13;8.60;;;;;;;;;;5073829;28;20035;-90
2023/05/27 00:39:06;;;;;;;32.23;8.93;;;;;;;;;;5073439;28;20028;-89
2023/05/27 00:41:32;;;;;;;29.90;9.20;;;;;;;;;;5072831;28;20029;-90
2023/05/27 00:43:57;;;;;;;26.73;7.73;;;;;;;;;;5070557;28;20029;-89
2023/05/27 00:46:23;;;;;;;38.37;9.40;;;;;;;;;;5072432;28;20029;-88
2023/05/27 00:48:48;;;;;;;30.93;8.73;;;;;;;;;;5069968;28;20028;-89
2023/05/27 00:51:14;;;;;;;31.90;8.47;;;;;;;;;;5074027;28;20048;-90
2023/05/27 00:53:43;;;;;;;33.97;8.43;;;;;;;;;;5071803;28;20448;-89
2023/05/27 00:56:15;;;;;;;31.20;9.00;;;;;;;;;;5057482;28;20056;-89
2023/05/27 00:58:40;;;;;;;31.83;8.70;;;;;;;;;;5071721;28;20048;-89
2023/05/27 01:04:12;;;;;;;38.50;9.77;;;;;;;;;;5085258;23;20071;-69
2023/05/27 01:06:38;;;;;;;29.83;9.83;;;;;;;;;;5069788;28;20115;-69
2023/05/27 01:09:08;;;;;;;29.57;9.43;;;;;;;;;;5070229;28;20111;-69
2023/05/27 01:11:48;;;;;;;45.83;10.30;;;;;;;;;;5070107;28;20417;-69
2023/05/27 01:14:14;;;;;;;36.17;9.53;;;;;;;;;;5063356;28;20028;-69
2023/05/27 01:16:43;;;;;;;29.83;9.40;;;;;;;;;;5067575;28;20461;-69
2023/05/27 01:19:12;;;;;;;40.07;9.77;;;;;;;;;;5072205;28;20032;-69
2023/05/27 01:21:39;;;;;;;44.80;11.40;;;;;;;;;;5072292;28;20111;-69
2023/05/27 01:24:05;;;;;;;32.67;9.57;;;;;;;;;;5072693;28;20024;-69
2023/05/27 01:26:30;;;;;;;40.70;11.40;;;;;;;;;;5071617;28;20036;-69
2023/05/27 01:28:56;;;;;;;40.03;11.30;;;;;;;;;;5068323;28;20076;-69
2023/05/27 01:31:45;;;;;;;40.27;10.60;;;;;;;;;;5053319;28;20021;-69
2023/05/27 01:34:12;;;;;;;37.60;10.70;;;;;;;;;;5047749;28;20028;-69
2023/05/27 01:36:43;;;;;;;38.87;10.60;;;;;;;;;;5070979;28;20024;-69
2023/05/27 01:39:10;;;;;;;37.87;10.27;;;;;;;;;;5072562;28;20017;-69
2023/05/27 01:41:36;;;;;;;36.80;11.43;;;;;;;;;;5072795;28;20473;-69
2023/05/27 01:44:02;;;;;;;40.73;10.67;;;;;;;;;;5073170;28;20059;-69
2023/05/27 01:46:27;;;;;;;38.37;10.57;;;;;;;;;;5072545;28;20091;-69
2023/05/27 01:48:53;;;;;;;38.93;10.83;;;;;;;;;;5072566;28;20028;-69
2023/05/27 01:51:18;;;;;;;42.63;11.13;;;;;;;;;;5072923;28;20036;-69
2023/05/27 01:53:43;;;;;;;36.53;11.37;;;;;;;;;;5072465;28;20410;-69
2023/05/27 01:56:08;;;;;;;46.73;11.60;;;;;;;;;;5072469;28;20028;-69
2023/05/27 01:58:34;;;;;;;42.03;11.07;;;;;;;;;;5072534;28;20521;-69
2023/05/27 02:01:00;;;;;;;40.37;11.77;;;;;;;;;;5061317;28;20120;-69
2023/05/27 02:03:26;;;;;;;43.63;12.07;;;;;;;;;;5059987;28;20135;-78
2023/05/27 02:05:52;;;;;;;38.90;11.57;;;;;;;;;;5070562;28;20024;-78
2023/05/27 02:08:17;;;;;;;44.77;12.57;;;;;;;;;;5074666;28;20098;-77
2023/05/27 02:10:42;;;;;;;52.23;12.37;;;;;;;;;;5074535;28;20497;-77
2023/05/27 02:13:08;;;;;;;54.93;13.03;;;;;;;;;;5075149;28;20032;-76
2023/05/27 02:15:33;;;;;;;44.83;12.50;;;;;;;;;;5071874;28;20483;-76
2023/05/27 02:17:58;;;;;;;46.27;12.67;;;;;;;;;;5065980;28;20154;-76
2023/05/27 02:20:23;;;;;;;42.80;13.13;;;;;;;;;;5075140;28;20032;-76
2023/05/27 02:22:52;;;;;;;45.77;13.63;;;;;;;;;;5075549;28;20390;-77
2023/05/27 02:25:17;;;;;;;50.10;13.77;;;;;;;;;;5076586;28;20074;-77
2023/05/27 02:27:46;;;;;;;43.77;13.80;;;;;;;;;;5075168;28;20032;-78
2023/05/27 02:30:12;;;;;;;50.83;13.80;;;;;;;;;;5076480;28;20036;-77
2023/05/27 02:32:38;;;;;;;48.93;14.07;;;;;;;;;;5060634;28;22006;-78
2023/05/27 02:35:03;;;;;;;51.23;14.40;;;;;;;;;;5075293;28;20024;-78
2023/05/27 02:37:28;;;;;;;42.57;13.67;;;;;;;;;;5062478;28;20036;-78
2023/05/27 02:39:55;;;;;;;49.07;13.57;;;;;;;;;;5070659;28;20390;-77
2023/05/27 02:42:20;;;;;;;42.57;14.10;;;;;;;;;;5075348;28;20025;-77
2023/05/27 02:44:45;;;;;;;50.67;14.87;;;;;;;;;;5075787;28;20031;-77
2023/05/27 02:47:10;;;;;;;48.20;14.63;;;;;;;;;;5065687;28;20048;-77
2023/05/27 02:49:36;;;;;;;48.73;14.60;;;;;;;;;;5062965;28;20029;-70
2023/05/27 02:52:01;;;;;;;58.53;15.80;;;;;;;;;;5060207;28;20466;-70
2023/05/27 02:54:26;;;;;;;47.93;13.63;;;;;;;;;;5076159;28;20021;-70
2023/05/27 02:56:52;;;;;;;48.23;14.63;;;;;;;;;;5063068;28;20029;-70
2023/05/27 02:59:17;;;;;;;51.67;15.30;;;;;;;;;;5074860;28;20068;-71
2023/05/27 03:01:42;;;;;;;55.43;14.37;;;;;;;;;;5073676;28;20111;-70
2023/05/27 03:04:07;;;;;;;67.00;14.93;;;;;;;;;;5057877;28;20541;-70
2023/05/27 03:06:33;;;;;;;56.63;14.60;;;;;;;;;;5075277;28;20494;-70
2023/05/27 03:08:58;;;;;;;64.60;15.83;;;;;;;;;;5075580;28;20063;-70
2023/05/27 03:11:23;;;;;;;62.27;15.03;;;;;;;;;;5075752;28;20024;-70
2023/05/27 03:13:49;;;;;;;59.50;16.57;;;;;;;;;;5073076;28;20029;-70
2023/05/27 03:16:14;;;;;;;74.60;16.23;;;;;;;;;;5075118;28;20446;-70
2023/05/27 03:18:39;;;;;;;58.43;16.17;;;;;;;;;;5072513;28;20024;-70
2023/05/27 03:21:05;;;;;;;59.13;17.03;;;;;;;;;;5062797;28;20051;-70
2023/05/27 03:23:30;;;;;;;59.57;16.33;;;;;;;;;;5073726;28;20024;-69
2023/05/27 03:25:55;;;;;;;62.73;16.73;;;;;;;;;;5075316;28;20028;-69
2023/05/27 03:28:20;;;;;;;63.60;17.23;;;;;;;;;;5074929;28;20036;-70
2023/05/27 03:30:46;;;;;;;62.10;16.63;;;;;;;;;;5069019;28;20025;-69
2023/05/27 03:33:11;;;;;;;56.20;16.97;;;;;;;;;;5059704;28;20479;-70
2023/05/27 03:35:36;;;;;;;66.50;17.47;;;;;;;;;;5069088;28;20029;-70
2023/05/27 03:38:02;;;;;;;52.53;15.33;;;;;;;;;;5059308;28;20489;-69
2023/05/27 03:40:27;;;;;;;65.27;16.07;;;;;;;;;;5063856;28;20021;-70
2023/05/27 03:42:53;;;;;;;58.57;17.23;;;;;;;;;;5073950;28;20429;-69
2023/05/27 03:45:18;;;;;;;64.93;18.33;;;;;;;;;;5060837;28;20116;-70
2023/05/27 03:47:43;;;;;;;55.60;16.07;;;;;;;;;;5062321;28;20029;-69
2023/05/27 03:50:09;;;;;;;58.17;16.60;;;;;;;;;;5074680;28;20031;-69
2023/05/27 03:52:34;;;;;;;41.23;14.63;;;;;;;;;;5074392;28;20355;-69
2023/05/27 03:55:00;;;;;;;55.63;16.23;;;;;;;;;;5073948;28;20051;-69
2023/05/27 03:57:25;;;;;;;50.20;15.77;;;;;;;;;;5075020;28;20024;-69
2023/05/27 03:59:50;;;;;;;47.27;14.90;;;;;;;;;;5073694;28;20029;-69
2023/05/27 04:02:15;;;;;;;48.20;15.30;;;;;;;;;;5073609;28;20032;-69
2023/05/27 04:04:41;;;;;;;49.57;15.00;;;;;;;;;;5073000;28;20025;-70
2023/05/27 04:07:07;;;;;;;43.90;13.13;;;;;;;;;;5073884;28;20039;-69
2023/05/27 04:09:32;;;;;;;35.97;11.80;;;;;;;;;;5066748;28;20039;-69
2023/05/27 04:11:57;;;;;;;37.10;11.47;;;;;;;;;;5066210;28;20469;-69
2023/05/27 04:14:23;;;;;;;30.07;11.57;;;;;;;;;;5068200;28;20462;-69
2023/05/27 04:16:49;;;;;;;33.43;11.20;;;;;;;;;;5073984;28;20042;-69
2023/05/27 04:19:14;;;;;;;34.43;9.37;;;;;;;;;;5066670;28;20078;-69
2023/05/27 04:21:40;;;;;;;26.67;8.73;;;;;;;;;;5054142;28;20421;-69
2023/05/27 04:24:05;;;;;;;30.63;7.63;;;;;;;;;;5070699;28;20027;-70
2023/05/27 04:26:32;;;;;;;18.83;6.57;;;;;;;;;;5073996;28;20394;-69
2023/05/27 04:29:00;;;;;;;20.87;6.73;;;;;;;;;;5073419;28;20462;-69
2023/05/27 04:31:28;;;;;;;19.27;5.23;;;;;;;;;;5073548;28;20043;-70
2023/05/27 04:33:54;;;;;;;17.97;5.37;;;;;;;;;;5072679;28;20020;-70
2023/05/27 04:36:19;;;;;;;18.43;5.70;;;;;;;;;;5056118;28;20382;-70
2023/05/27 04:38:45;;;;;;;16.43;4.97;;;;;;;;;;5069669;28;20039;-70
2023/05/27 04:41:10;;;;;;;15.30;4.80;;;;;;;;;;5068337;28;20060;-70
2023/05/27 04:43:35;;;;;;;18.63;4.73;;;;;;;;;;5073365;28;20032;-70
2023/05/27 04:46:01;;;;;;;16.30;4.77;;;;;;;;;;5073042;28;20465;-70
2023/05/27 04:48:27;;;;;;;17.00;5.40;;;;;;;;;;5072978;28;20033;-71
2023/05/27 04:50:52;;;;;;;15.03;4.20;;;;;;;;;;5060508;28;20021;-71
2023/05/27 04:53:18;;;;;;;15.93;4.57;;;;;;;;;;5054087;28;20024;-71
2023/05/27 04:55:43;;;;;;;24.27;5.10;;;;;;;;;;5066031;28;20016;-71
2023/05/27 04:58:08;;;;;;;16.60;4.60;;;;;;;;;;5073459;28;20082;-72
2023/05/27 05:01:16;;;;;;;17.40;3.87;;;;;;;;;;5056481;28;20394;-72
2023/05/27 05:03:36;;;;;;;15.10;4.10;;;;;;;;;;5071280;28;20036;-71
2023/05/27 05:06:02;;;;;;;21.93;4.73;;;;;;;;;;5071447;28;20025;-71
2023/05/27 05:08:28;;;;;;;18.63;5.20;;;;;;;;;;5072837;28;20050;-72
2023/05/27 05:10:53;;;;;;;21.40;5.13;;;;;;;;;;5072059;28;20583;-72
2023/05/27 05:13:18;;;;;;;17.53;4.60;;;;;;;;;;5072536;28;20020;-72
2023/05/27 05:15:43;;;;;;;19.50;4.00;;;;;;;;;;5072836;28;20020;-72
2023/05/27 05:18:12;;;;;;;15.77;3.55;;;;;;;;;;5072629;28;20374;-72
2023/05/27 05:20:37;;;;;;;15.67;4.10;;;;;;;;;;5056761;28;20021;-72
2023/05/27 05:23:02;;;;;;;14.93;3.83;;;;;;;;;;5073381;28;20024;-71
2023/05/27 05:25:29;;;;;;;14.07;3.93;;;;;;;;;;5071730;28;20386;-71
2023/05/27 05:27:55;;;;;;;16.10;4.40;;;;;;;;;;5071211;28;20415;-72
2023/05/27 05:30:20;;;;;;;23.20;4.40;;;;;;;;;;5071985;28;20025;-73
2023/05/27 05:32:46;;;;;;;14.63;4.03;;;;;;;;;;5073024;28;20032;-72
2023/05/27 05:35:11;;;;;;;17.55;3.83;;;;;;;;;;5067775;28;20021;-72
2023/05/27 05:37:37;;;;;;;16.45;3.80;;;;;;;;;;5069817;28;20099;-72
2023/05/27 05:40:02;;;;;;;16.85;3.97;;;;;;;;;;5071906;28;20025;-71
2023/05/27 05:42:28;;;;;;;15.82;3.88;;;;;;;;;;5064639;28;20506;-72
2023/05/27 05:44:53;;;;;;;16.52;3.80;;;;;;;;;;5057879;28;20030;-72
2023/05/27 05:47:19;;;;;;;15.40;3.63;;;;;;;;;;5072981;28;20024;-72
2023/05/27 05:49:44;;;;;;;18.60;4.32;;;;;;;;;;5073138;28;20028;-72
2023/05/27 05:52:09;;;;;;;15.63;4.05;;;;;;;;;;5073117;28;20020;-72
2023/05/27 05:54:34;;;;;;;16.15;4.25;;;;;;;;;;5070691;28;20079;-73
2023/05/27 05:57:00;;;;;;;17.23;4.55;;;;;;;;;;5072823;28;20023;-73
2023/05/27 05:59:26;;;;;;;12.95;3.03;;;;;;;;;;5072435;28;20408;-73
2023/05/27 06:01:51;;;;;;;15.05;3.55;;;;;;;;;;5072123;28;20025;-72
2023/05/27 06:04:17;;;;;;;18.13;3.90;;;;;;;;;;5071252;28;20457;-72
2023/05/27 06:06:42;;;;;;;17.30;3.78;;;;;;;;;;5072113;28;20378;-73
2023/05/27 06:09:08;;;;;;;18.30;4.35;;;;;;;;;;5063537;28;20425;-73
2023/05/27 06:11:34;;;;;;;13.57;4.18;;;;;;;;;;5071484;28;20448;-73
2023/05/27 06:13:59;;;;;;;9.50;2.80;;;;;;;;;;5072300;28;20024;-74
2023/05/27 06:16:25;;;;;;;12.90;3.50;;;;;;;;;;5063259;28;20021;-72
2023/05/27 06:18:51;;;;;;;17.58;3.72;;;;;;;;;;5071870;28;20120;-72
2023/05/27 06:21:17;;;;;;;18.05;4.25;;;;;;;;;;5064016;28;20513;-73
2023/05/27 06:23:42;;;;;;;14.75;3.60;;;;;;;;;;5055816;28;20021;-73
2023/05/27 06:26:07;;;;;;;12.90;3.38;;;;;;;;;;5057395;28;20482;-72
2023/05/27 06:28:32;;;;;;;12.80;4.10;;;;;;;;;;5071090;28;20085;-73
2023/05/27 06:30:58;;;;;;;12.93;3.65;;;;;;;;;;5068655;28;20382;-73
2023/05/27 06:33:23;;;;;;;13.07;3.88;;;;;;;;;;5054009;28;20014;-73
2023/05/27 06:35:48;;;;;;;14.18;3.70;;;;;;;;;;5069920;28;20021;-72
2023/05/27 06:38:14;;;;;;;14.13;3.80;;;;;;;;;;5056930;28;20028;-73
2023/05/27 06:40:39;;;;;;;16.98;4.15;;;;;;;;;;5063141;28;20373;-73
2023/05/27 06:43:04;;;;;;;18.65;4.70;;;;;;;;;;5071417;28;20477;-73
2023/05/27 06:45:30;;;;;;;12.57;3.92;;;;;;;;;;5062996;28;20028;-73
2023/05/27 06:47:56;;;;;;;17.35;4.60;;;;;;;;;;5059167;28;20017;-72
2023/05/27 06:50:21;;;;;;;13.30;3.80;;;;;;;;;;5066117;28;20024;-72
2023/05/27 06:52:46;;;;;;;14.40;3.72;;;;;;;;;;5060305;28;20470;-74
2023/05/27 06:55:11;;;;;;;13.15;4.00;;;;;;;;;;5066255;28;20059;-73
2023/05/27 06:57:37;;;;;;;13.00;3.85;;;;;;;;;;5065397;28;20048;-73
2023/05/27 07:00:05;;;;;;;17.05;3.85;;;;;;;;;;5065049;28;20397;-72
2023/05/27 07:02:30;;;;;;;13.93;4.05;;;;;;;;;;5065527;28;20494;-71
2023/05/27 07:04:55;;;;;;;14.32;3.72;;;;;;;;;;5079086;28;20085;-72
2023/05/27 07:07:21;;;;;;;16.20;4.00;;;;;;;;;;5063329;28;20016;-72
2023/05/27 07:09:46;;;;;;;12.95;4.22;;;;;;;;;;5061004;28;20028;-74
2023/05/27 07:12:11;;;;;;;14.68;3.97;;;;;;;;;;5071244;28;20016;-73
2023/05/27 07:14:37;;;;;;;16.63;3.92;;;;;;;;;;5070590;28;20016;-73
2023/05/27 07:17:02;;;;;;;13.93;3.67;;;;;;;;;;5063772;28;20370;-74
2023/05/27 07:19:27;;;;;;;12.77;3.60;;;;;;;;;;5062949;28;20032;-73
2023/05/27 07:21:52;;;;;;;13.02;3.83;;;;;;;;;;5066224;28;20024;-73
2023/05/27 07:24:18;;;;;;;14.45;3.88;;;;;;;;;;5064494;28;20025;-72
2023/05/27 07:26:43;;;;;;;13.85;3.83;;;;;;;;;;5070976;28;20485;-72
2023/05/27 07:29:09;;;;;;;16.65;4.60;;;;;;;;;;5069803;28;20111;-72
2023/05/27 07:31:34;;;;;;;14.73;4.15;;;;;;;;;;5063230;28;20103;-67
2023/05/27 07:33:59;;;;;;;15.05;3.75;;;;;;;;;;5071695;28;20016;-70
2023/05/27 07:36:25;;;;;;;12.25;3.95;;;;;;;;;;5071067;28;20381;-71
2023/05/27 07:38:50;;;;;;;13.35;4.10;;;;;;;;;;5068985;28;20017;-71
2023/05/27 07:41:15;;;;;;;13.75;3.83;;;;;;;;;;5069411;28;20013;-70
2023/05/27 07:43:41;;;;;;;12.85;3.85;;;;;;;;;;5068752;28;20025;-69
2023/05/27 07:46:06;;;;;;;14.85;4.18;;;;;;;;;;5060520;28;20020;-72
2023/05/27 07:48:31;;;;;;;13.15;3.63;;;;;;;;;;5062042;28;20048;-72
2023/05/27 07:50:57;;;;;;;13.15;4.07;;;;;;;;;;5074308;28;20107;-71
2023/05/27 07:53:22;;;;;;;12.60;3.88;;;;;;;;;;5071873;28;20058;-72
2023/05/27 07:55:47;;;;;;;13.05;3.47;;;;;;;;;;5065469;28;20088;-72
2023/05/27 07:58:13;;;;;;;16.27;4.00;;;;;;;;;;5070929;28;20021;-71
2023/05/27 08:00:38;;;;;;;14.20;4.35;;;;;;;;;;5063957;28;20115;-71
2023/05/27 08:03:03;;;;;;;17.33;4.78;;;;;;;;;;5062363;28;20041;-72
2023/05/27 08:05:29;;;;;;;13.77;4.25;;;;;;;;;;5075108;28;20028;-72
2023/05/27 08:07:54;;;;;;;13.10;4.22;;;;;;;;;;5073402;28;20021;-71
2023/05/27 08:10:20;;;;;;;14.45;3.65;;;;;;;;;;5070715;28;20028;-71
2023/05/27 08:12:45;;;;;;;12.40;3.70;;;;;;;;;;5069072;28;20048;-72
2023/05/27 08:15:11;;;;;;;14.63;4.07;;;;;;;;;;5065787;28;20041;-72
2023/05/27 08:17:36;;;;;;;16.90;4.10;;;;;;;;;;5070200;28;20021;-72
2023/05/27 08:20:01;;;;;;;11.43;3.90;;;;;;;;;;5055160;28;20096;-72
2023/05/27 08:22:27;;;;;;;18.40;4.15;;;;;;;;;;5066612;28;20059;-71
2023/05/27 08:24:54;;;;;;;17.52;4.88;;;;;;;;;;5072752;28;20024;-73
2023/05/27 08:27:20;;;;;;;16.00;3.67;;;;;;;;;;5070514;28;20388;-73
2023/05/27 08:29:46;;;;;;;15.05;3.95;;;;;;;;;;5065022;28;20024;-72
2023/05/27 08:32:11;;;;;;;10.63;3.42;;;;;;;;;;5071681;28;20377;-72
2023/05/27 08:34:36;;;;;;;17.38;4.28;;;;;;;;;;5071739;28;20012;-72
2023/05/27 08:37:03;;;;;;;13.85;4.30;;;;;;;;;;5062442;28;20470;-72
2023/05/27 08:39:28;;;;;;;15.07;3.85;;;;;;;;;;5056308;28;20185;-71
2023/05/27 08:41:54;;;;;;;16.25;4.00;;;;;;;;;;5072454;28;20553;-72
2023/05/27 08:44:22;;;;;;;12.52;3.72;;;;;;;;;;5073510;28;20028;-71
2023/05/27 08:46:48;;;;;;;13.13;3.70;;;;;;;;;;5069941;28;20432;-72
2023/05/27 08:49:14;;;;;;;14.65;4.18;;;;;;;;;;5055881;28;20048;-72
2023/05/27 08:51:40;;;;;;;12.65;3.60;;;;;;;;;;5070559;28;20029;-72
2023/05/27 08:54:05;;;;;;;12.60;4.18;;;;;;;;;;5070252;28;20013;-71
2023/05/27 08:56:32;;;;;;;14.60;3.90;;;;;;;;;;5066325;28;20039;-70
2023/05/27 08:58:58;;;;;;;14.23;4.05;;;;;;;;;;5073736;28;20023;-71
2023/05/27 09:01:24;;;;;;;13.65;3.60;;;;;;;;;;5068526;28;20033;-72
2023/05/27 09:03:50;;;;;;;13.57;3.70;;;;;;;;;;5071198;28;20080;-72
2023/05/27 09:06:15;;;;;;;11.93;3.22;;;;;;;;;;5069357;28;20406;-72
2023/05/27 09:08:41;;;;;;;9.77;3.42;;;;;;;;;;5073558;28;20405;-71
2023/05/27 09:11:07;;;;;;;11.60;3.80;;;;;;;;;;5066002;28;20013;-72
2023/05/27 09:13:33;;;;;;;11.07;3.38;;;;;;;;;;5061376;28;20531;-72
2023/05/27 09:16:07;;;;;;;10.73;3.30;;;;;;;;;;5066395;28;20024;-72
2023/05/27 09:18:33;;;;;;;13.70;3.28;;;;;;;;;;5061521;28;20017;-72
2023/05/27 09:20:59;;;;;;;16.95;3.55;;;;;;;;;;5068942;28;20509;-72
2023/05/27 09:23:25;;;;;;;12.88;3.63;;;;;;;;;;5080636;28;20012;-71
2023/05/27 09:25:50;;;;;;;12.45;3.72;;;;;;;;;;5072792;28;20082;-72
2023/05/27 09:28:25;;;;;;;13.93;3.40;;;;;;;;;;5055210;28;20025;-72
2023/05/27 09:30:52;;;;;;;12.88;3.75;;;;;;;;;;5070908;28;20103;-72
2023/05/27 09:33:22;;;;;;;11.38;3.38;;;;;;;;;;5068705;28;20108;-72
2023/05/27 09:35:47;;;;;;;12.23;3.78;;;;;;;;;;5066954;28;20020;-71
2023/05/27 09:38:13;;;;;;;11.63;3.38;;;;;;;;;;5071295;28;20094;-72
2023/05/27 09:40:38;;;;;;;9.88;3.33;;;;;;;;;;5067734;28;20581;-72
2023/05/27 09:43:04;;;;;;;13.10;3.92;;;;;;;;;;5073085;28;20028;-72
2023/05/27 09:45:29;;;;;;;10.27;3.35;;;;;;;;;;5069264;28;20027;-72
2023/05/27 09:47:56;;;;;;;12.90;3.53;;;;;;;;;;5057564;28;20395;-71
2023/05/27 09:50:21;;;;;;;10.73;3.28;;;;;;;;;;5052910;28;20028;-72
2023/05/27 09:52:48;;;;;;;11.45;3.45;;;;;;;;;;5055140;28;20488;-72
2023/05/27 09:55:14;;;;;;;13.63;4.47;;;;;;;;;;5064890;28;20368;-72
2023/05/27 09:57:39;;;;;;;13.23;3.45;;;;;;;;;;5067140;28;20016;-72
2023/05/27 10:00:15;;;;;;;14.35;3.70;;;;;;;;;;5067904;28;20027;-72
2023/05/27 10:02:42;;;;;;;8.77;2.92;;;;;;;;;;5068885;28;20052;-72
2023/05/27 10:05:08;;;;;;;9.95;3.53;;;;;;;;;;5070529;28;20543;-71
2023/05/27 10:07:40;;;;;;;15.57;4.05;;;;;;;;;;5066255;28;20103;-72
2023/05/27 10:10:07;;;;;;;16.08;3.75;;;;;;;;;;5070624;28;20031;-72
2023/05/27 10:12:32;;;;;;;10.00;3.55;;;;;;;;;;5067168;28;20073;-72
2023/05/27 10:14:58;;;;;;;10.10;3.15;;;;;;;;;;5063203;28;20241;-72
2023/05/27 10:17:23;;;;;;;8.93;2.80;;;;;;;;;;5065812;28;20062;-72
2023/05/27 10:19:53;;;;;;;12.18;3.60;;;;;;;;;;5060152;28;20029;-71
2023/05/27 10:22:20;;;;;;;17.70;3.55;;;;;;;;;;5070462;28;20024;-73
2023/05/27 10:24:48;;;;;;;11.95;3.72;;;;;;;;;;5061785;28;20557;-72
2023/05/27 10:27:13;;;;;;;11.35;3.38;;;;;;;;;;5064681;28;20036;-71
2023/05/27 10:29:38;;;;;;;14.60;3.70;;;;;;;;;;5069124;28;20033;-71
2023/05/27 10:32:04;;;;;;;11.82;3.80;;;;;;;;;;5066797;28;20115;-72
2023/05/27 10:34:36;;;;;;;14.77;3.83;;;;;;;;;;5071950;28;20017;-72
2023/05/27 10:37:02;;;;;;;9.38;2.78;;;;;;;;;;5068985;28;20023;-74
2023/05/27 10:39:27;;;;;;;13.77;3.97;;;;;;;;;;5067407;28;20115;-72
2023/05/27 10:41:53;;;;;;;14.70;3.42;;;;;;;;;;5059759;28;20386;-72
2023/05/27 10:44:39;;;;;;;11.85;3.25;;;;;;;;;;5063247;28;20032;-73
2023/05/27 10:47:13;;;;;;;9.98;3.20;;;;;;;;;;5062211;28;20016;-73
2023/05/27 10:49:40;;;;;;;11.70;3.28;;;;;;;;;;5059765;28;20056;-72
2023/05/27 10:52:15;;;;;;;15.00;4.13;;;;;;;;;;5079010;28;20412;-71
2023/05/27 10:54:52;;;;;;;9.43;2.70;;;;;;;;;;5070357;28;20044;-72
2023/05/27 10:57:17;;;;;;;9.43;3.30;;;;;;;;;;5067099;28;20021;-72
2023/05/27 10:59:50;;;;;;;13.05;3.30;;;;;;;;;;5065055;28;20497;-73
2023/05/27 11:02:16;;;;;;;13.63;3.40;;;;;;;;;;5070985;28;20024;-72
2023/05/27 11:04:42;;;;;;;10.65;3.22;;;;;;;;;;5075759;28;20160;-72
2023/05/27 11:07:07;;;;;;;9.38;3.15;;;;;;;;;;5075522;28;20027;-71
2023/05/27 11:09:45;;;;;;;11.93;3.55;;;;;;;;;;5070847;28;20027;-73
2023/05/27 11:12:18;;;;;;;12.40;3.72;;;;;;;;;;5068786;28;20455;-72
2023/05/27 11:14:43;;;;;;;8.88;3.20;;;;;;;;;;5072694;28;20462;-73
2023/05/27 11:17:11;;;;;;;9.98;3.28;;;;;;;;;;5062814;28;20051;-73
2023/05/27 11:19:38;;;;;;;11.02;3.58;;;;;;;;;;5064521;28;20017;-72
2023/05/27 11:22:03;;;;;;;13.43;3.78;;;;;;;;;;5070227;28;20016;-72
2023/05/27 11:24:28;;;;;;;10.30;3.50;;;;;;;;;;5070883;28;20024;-73
2023/05/27 11:26:54;;;;;;;12.20;3.50;;;;;;;;;;5063754;28;20028;-73
2023/05/27 11:29:19;;;;;;;10.30;3.40;;;;;;;;;;5069445;28;20032;-73
2023/05/27 11:31:47;;;;;;;10.48;3.53;;;;;;;;;;5074958;28;20021;-73
2023/05/27 11:34:13;;;;;;;12.55;3.92;;;;;;;;;;5074757;28;20458;-72
2023/05/27 11:36:39;;;;;;;14.93;3.60;;;;;;;;;;5074723;28;20074;-73
2023/05/27 11:39:05;;;;;;;9.80;3.00;;;;;;;;;;5074167;28;20048;-72
2023/05/27 11:41:30;;;;;;;11.90;3.40;;;;;;;;;;5074279;28;20378;-71
2023/05/27 11:44:08;;;;;;;11.40;3.15;;;;;;;;;;5075532;28;20029;-73
2023/05/27 11:46:37;;;;;;;9.70;3.33;;;;;;;;;;5068833;28;20033;-72
2023/05/27 11:49:03;;;;;;;13.45;3.70;;;;;;;;;;5075849;28;20016;-71
2023/05/27 11:51:29;;;;;;;11.63;3.40;;;;;;;;;;5069153;28;20025;-72
2023/05/27 11:53:54;;;;;;;10.73;3.38;;;;;;;;;;5068345;28;20017;-73
2023/05/27 11:56:20;;;;;;;9.07;3.05;;;;;;;;;;5075372;28;20386;-74
2023/05/27 11:58:45;;;;;;;10.85;3.40;;;;;;;;;;5069772;28;20024;-73
2023/05/27 12:01:10;;;;;;;7.95;2.80;;;;;;;;;;5074910;28;20021;-74
2023/05/27 12:03:36;;;;;;;11.40;3.67;;;;;;;;;;5071831;28;20065;-74
2023/05/27 12:06:02;;;;;;;10.63;3.60;;;;;;;;;;5069040;28;20052;-74
2023/05/27 12:08:27;;;;;;;12.63;3.80;;;;;;;;;;5068549;28;20021;-73
2023/05/27 12:10:53;;;;;;;11.20;3.20;;;;;;;;;;5071569;28;20024;-74
2023/05/27 12:13:19;;;;;;;11.88;3.55;;;;;;;;;;5089230;28;20152;-75
2023/05/27 12:15:45;;;;;;;11.88;3.72;;;;;;;;;;5075023;28;20017;-73
2023/05/27 12:18:10;;;;;;;11.32;3.45;;;;;;;;;;5071729;28;20104;-74
2023/05/27 12:20:35;;;;;;;11.93;3.53;;;;;;;;;;5069619;28;20024;-73
2023/05/27 12:23:00;;;;;;;10.68;3.45;;;;;;;;;;5071410;28;20031;-73
2023/05/27 12:25:26;;;;;;;13.60;3.13;;;;;;;;;;5068985;28;20111;-73
2023/05/27 12:27:51;;;;;;;13.68;3.58;;;;;;;;;;5072374;28;20042;-73
2023/05/27 12:30:16;;;;;;;11.65;2.97;;;;;;;;;;5067643;28;20419;-74
2023/05/27 12:32:42;;;;;;;7.28;2.90;;;;;;;;;;5060193;28;20020;-74
2023/05/27 12:35:07;;;;;;;11.13;3.40;;;;;;;;;;5066495;28;20028;-73
2023/05/27 12:37:35;;;;;;;10.75;3.28;;;;;;;;;;5067238;28;20023;-74
2023/05/27 12:40:00;;;;;;;12.27;3.80;;;;;;;;;;5066274;28;20070;-73
2023/05/27 12:42:27;;;;;;;14.85;4.10;;;;;;;;;;5057910;28;20108;-73
2023/05/27 12:44:52;;;;;;;11.00;3.47;;;;;;;;;;5065629;28;20526;-72
2023/05/27 12:47:17;;;;;;;13.98;3.33;;;;;;;;;;5069695;28;20028;-72
2023/05/27 12:49:42;;;;;;;8.85;3.35;;;;;;;;;;5070155;28;20031;-74
2023/05/27 12:52:08;;;;;;;13.35;3.38;;;;;;;;;;5065996;28;20520;-73
2023/05/27 12:54:33;;;;;;;11.27;3.13;;;;;;;;;;5059287;28;20020;-74
2023/05/27 12:56:58;;;;;;;11.70;3.60;;;;;;;;;;5062314;28;20035;-75
2023/05/27 12:59:24;;;;;;;7.15;2.72;;;;;;;;;;5061005;28;20075;-76
2023/05/27 13:01:49;;;;;;;9.43;2.90;;;;;;;;;;5066000;28;20024;-73
2023/05/27 13:04:15;;;;;;;10.00;3.15;;;;;;;;;;5072513;28;20040;-73
2023/05/27 13:06:40;;;;;;;8.82;2.60;;;;;;;;;;5070704;28;20028;-74
2023/05/27 13:09:06;;;;;;;10.13;3.20;;;;;;;;;;5058640;28;20391;-73
2023/05/27 13:11:33;;;;;;;12.23;3.45;;;;;;;;;;5067679;28;20058;-73
2023/05/27 13:13:58;;;;;;;11.13;3.33;;;;;;;;;;5073468;28;20021;-73
2023/05/27 13:16:24;;;;;;;9.15;3.13;;;;;;;;;;5070291;28;20024;-73
2023/05/27 13:18:49;;;;;;;8.52;3.30;;;;;;;;;;5068948;28;20055;-75
2023/05/27 13:21:14;;;;;;;10.65;3.22;;;;;;;;;;5068557;28;20053;-74
2023/05/27 13:23:39;;;;;;;9.40;3.00;;;;;;;;;;5070766;28;20017;-73
2023/05/27 13:26:06;;;;;;;12.05;3.60;;;;;;;;;;5068519;28;20048;-73
2023/05/27 13:28:31;;;;;;;11.63;3.40;;;;;;;;;;5072455;28;20522;-73
2023/05/27 13:30:58;;;;;;;6.70;2.60;;;;;;;;;;5068542;28;20225;-74
2023/05/27 13:33:24;;;;;;;9.57;3.50;;;;;;;;;;5068746;28;20083;-73
2023/05/27 13:35:49;;;;;;;11.88;3.28;;;;;;;;;;5071795;28;20020;-72
2023/05/27 13:38:16;;;;;;;11.60;3.20;;;;;;;;;;5072928;28;20024;-73
2023/05/27 13:40:41;;;;;;;9.18;2.90;;;;;;;;;;5071473;28;20537;-75
2023/05/27 13:43:07;;;;;;;12.93;5.15;;;;;;;;;;5073105;28;20059;-74
2023/05/27 13:45:34;;;;;;;9.40;3.50;;;;;;;;;;5064683;28;20106;-74
2023/05/27 13:50:29;;;;;;;11.02;3.33;;;;;;;;;;5056455;28;20082;-74
2023/05/27 13:52:54;;;;;;;8.55;3.13;;;;;;;;;;5060430;28;20086;-75
2023/05/27 13:55:19;;;;;;;8.55;3.00;;;;;;;;;;5066488;28;20028;-75
2023/05/27 13:57:45;;;;;;;9.20;2.80;;;;;;;;;;5061895;28;20465;-76
2023/05/27 14:00:11;;;;;;;8.68;3.05;;;;;;;;;;5066555;28;20048;-75
2023/05/27 14:02:36;;;;;;;9.27;3.20;;;;;;;;;;5067681;28;20044;-75
2023/05/27 14:05:02;;;;;;;8.75;2.70;;;;;;;;;;5070458;28;20029;-75
2023/05/27 14:07:28;;;;;;;10.95;3.40;;;;;;;;;;5076634;28;20154;-75
2023/05/27 14:09:53;;;;;;;9.80;3.13;;;;;;;;;;5073611;28;20103;-76
2023/05/27 14:12:19;;;;;;;11.05;3.15;;;;;;;;;;5064938;28;20036;-77
2023/05/27 14:14:44;;;;;;;10.20;2.90;;;;;;;;;;5075884;28;20474;-75
2023/05/27 14:17:09;;;;;;;7.93;2.90;;;;;;;;;;5074941;28;20024;-76
2023/05/27 14:19:35;;;;;;;11.30;3.22;;;;;;;;;;5076373;28;20099;-77
2023/05/27 14:22:00;;;;;;;6.43;2.30;;;;;;;;;;5075401;28;20017;-77
2023/05/27 14:24:25;;;;;;;9.43;3.08;;;;;;;;;;5076908;28;20023;-75
2023/05/27 14:26:51;;;;;;;13.13;3.25;;;;;;;;;;5059723;28;20021;-76